CheckWX is a tool to help pilots better visualize weather data.  It is not intended as a substitute for an official pre-flight weather briefing.

18:11:43 UTC

KJDN METAR
Jordan Airport
Jordan, Montana, USA
Current

24 mins ago

KJDN 171748Z AUTO 32009KT M18/M22 A3025 RMK AO1 SLP316 60001 T11781222 11178 21189 51023
Observed
Feb-17 @ 17:48 UTC
Wind
  • 320° at 9 KTS
Visibility
Temperature
-18°C / -0°F
Dewpoint
-22°C / -8°F
Humidity
71%
Altimeter
30.25" Hg
Pressure
1031.6 hPa
Previous

1 hour ago

KJDN 171648Z AUTO 33010KT M18/M22 A3024 RMK AO1 SLP312 P0001 T11831222
Observed
Feb-17 @ 16:48 UTC
Wind
  • 330° at 10 KTS
Visibility
Temperature
-18°C / -0°F
Dewpoint
-22°C / -8°F
Humidity
71%
Altimeter
30.24" Hg
Pressure
1031.2 hPa
Current Rain
0.01"
Previous

2 hours ago

KJDN 171548Z AUTO 32016KT M19/M23 A3021 RMK AO1 SLP303 T11891228
Observed
Feb-17 @ 15:48 UTC
Wind
  • 320° at 16 KTS
Visibility
Temperature
-19°C / -2°F
Dewpoint
-23°C / -9°F
Humidity
71%
Altimeter
30.21" Hg
Pressure
1030.3 hPa